Time;durP1;ratioP1;P1;durP2;ratioP2;P2;SDS_P1;SDS_P2;PMS_P1;PMS_P2;Temp;Humidity;BMP_temperature;BMP_pressure;BME280_temperature;BME280_humidity;BME280_pressure;Samples;Min_cycle;Max_cycle;Signal;HPM_P1;HPM_P2
2022/07/19 00:00:17;;;;;;;;;;;;;;;16.89;63.05;95810.22;5115375;28;1036;-51
2022/07/19 00:02:43;;;;;;;;;;;;;;;16.89;63.99;95804.81;5115621;28;1040;-51
2022/07/19 00:05:10;;;;;;;;;;;;;;;17.15;62.58;95811.63;5114963;28;1910;-51
2022/07/19 00:07:36;;;;;;;;;;;;;;;17.11;63.76;95816.56;5115459;28;1036;-51
2022/07/19 00:10:03;;;;;;;;;;;;;;;16.77;64.70;95808.97;5115349;28;981;-51
2022/07/19 00:12:29;;;;;;;;;;;;;;;16.67;64.98;95811.91;5115385;28;1032;-51
2022/07/19 00:14:56;;;;;;;;;;;;;;;16.71;65.05;95810.53;5115265;28;1048;-51
2022/07/19 00:17:22;;;;;;;;;;;;;;;16.78;65.33;95807.91;5115155;28;1033;-50
2022/07/19 00:19:48;;;;;;;;;;;;;;;16.57;65.28;95809.47;5115027;28;1047;-50
2022/07/19 00:22:14;;;;;;;;;;;;;;;16.50;65.49;95813.06;5115076;28;1049;-50
2022/07/19 00:24:40;;;;;;;;;;;;;;;16.63;65.00;95802.47;5115077;28;1990;-50
2022/07/19 00:27:06;;;;;;;;;;;;;;;16.55;65.27;95805.28;5115002;28;1068;-50
2022/07/19 00:29:32;;;;;;;;;;;;;;;16.68;64.70;95799.25;5114238;28;1048;-51
2022/07/19 00:31:58;;;;;;;;;;;;;;;16.70;64.94;95794.50;5114899;28;992;-51
2022/07/19 00:34:24;;;;;;;;;;;;;;;16.62;64.82;95795.44;5114638;28;1056;-51
2022/07/19 00:36:50;;;;;;;;;;;;;;;16.67;64.65;95795.69;5114739;28;1032;-51
2022/07/19 00:39:16;;;;;;;;;;;;;;;16.80;63.83;95792.38;5114981;28;985;-48
2022/07/19 00:41:42;;;;;;;;;;;;;;;16.81;63.93;95790.50;5114739;28;978;-48
2022/07/19 00:44:09;;;;;;;;;;;;;;;16.70;64.44;95797.22;5099083;28;1158;-48
2022/07/19 00:46:35;;;;;;;;;;;;;;;16.65;64.72;95786.13;5094170;28;1914;-48
2022/07/19 00:49:02;;;;;;;;;;;;;;;16.62;65.02;95790.03;5093986;28;1183;-48
2022/07/19 00:51:28;;;;;;;;;;;;;;;16.55;65.49;95805.28;5094324;28;1043;-48
2022/07/19 00:53:55;;;;;;;;;;;;;;;16.43;64.95;95807.56;5094209;28;1080;-48
2022/07/19 00:56:22;;;;;;;;;;;;;;;16.43;65.05;95807.56;5075942;28;1029;-48
2022/07/19 00:58:48;;;;;;;;;;;;;;;16.40;65.18;95807.91;5094280;28;1016;-48
2022/07/19 01:01:14;;;;;;;;;;;;;;;16.36;65.56;95809.31;5093838;28;1103;-48
2022/07/19 01:03:40;;;;;;;;;;;;;;;16.41;65.44;95804.22;5094502;28;1000;-48
2022/07/19 01:06:07;;;;;;;;;;;;;;;16.46;65.56;95804.50;5093714;28;1910;-48
2022/07/19 01:08:35;;;;;;;;;;;;;;;16.35;66.14;95813.88;5094161;28;1049;-47
2022/07/19 01:11:02;;;;;;;;;;;;;;;15.99;67.47;95814.47;5093800;28;988;-47
2022/07/19 01:13:28;;;;;;;;;;;;;;;15.71;68.52;95808.69;5076113;28;953;-48
2022/07/19 01:15:54;;;;;;;;;;;;;;;15.73;68.11;95814.78;5093720;28;962;-48
2022/07/19 01:18:20;;;;;;;;;;;;;;;15.69;68.36;95809.88;5093690;28;982;-48
2022/07/19 01:20:46;;;;;;;;;;;;;;;15.51;69.06;95818.22;5093823;28;1082;-48
2022/07/19 01:23:12;;;;;;;;;;;;;;;15.50;69.10;95806.63;5093617;28;918;-48
2022/07/19 01:25:38;;;;;;;;;;;;;;;15.77;67.75;95815.28;5093627;28;1886;-48
2022/07/19 01:28:06;;;;;;;;;;;;;;;15.75;67.96;95806.53;5093688;28;1012;-48
2022/07/19 01:30:32;;;;;;;;;;;;;;;15.51;68.67;95810.16;5093593;28;945;-48
2022/07/19 01:32:58;;;;;;;;;;;;;;;15.58;68.43;95809.25;5093560;28;1028;-48
2022/07/19 01:35:25;;;;;;;;;;;;;;;15.70;68.03;95807.00;5093514;28;965;-48
2022/07/19 01:37:51;;;;;;;;;;;;;;;15.78;67.79;95809.72;5093731;28;1045;-48
2022/07/19 01:40:17;;;;;;;;;;;;;;;15.74;67.91;95811.06;5093284;28;1995;-48
2022/07/19 01:42:44;;;;;;;;;;;;;;;15.35;68.86;95811.91;5097029;28;1220;-48
2022/07/19 01:45:11;;;;;;;;;;;;;;;15.14;69.96;95806.22;5113640;28;1910;-48
2022/07/19 01:47:37;;;;;;;;;;;;;;;15.29;69.58;95809.06;5113544;28;974;-48
2022/07/19 01:50:04;;;;;;;;;;;;;;;15.49;68.27;95812.19;5115581;28;1222;-48
2022/07/19 01:52:30;;;;;;;;;;;;;;;15.52;68.59;95815.38;5113806;28;1026;-48
2022/07/19 01:54:56;;;;;;;;;;;;;;;15.41;68.91;95813.88;5113877;28;1056;-48
2022/07/19 01:57:22;;;;;;;;;;;;;;;15.15;69.56;95816.00;5113393;28;1032;-47
2022/07/19 01:59:48;;;;;;;;;;;;;;;15.19;69.60;95809.25;5113718;28;1129;-48
2022/07/19 02:02:14;;;;;;;;;;;;;;;14.93;70.12;95821.13;5113374;28;969;-48
2022/07/19 02:04:40;;;;;;;;;;;;;;;14.81;70.84;95815.25;5113391;28;1910;-48
2022/07/19 02:07:06;;;;;;;;;;;;;;;14.91;70.55;95815.06;5113515;28;954;-48
2022/07/19 02:09:32;;;;;;;;;;;;;;;14.91;70.22;95825.84;5113952;28;1032;-48
2022/07/19 02:11:59;;;;;;;;;;;;;;;14.67;71.01;95826.72;5113513;28;988;-48
2022/07/19 02:14:25;;;;;;;;;;;;;;;14.95;69.65;95827.19;5113577;28;913;-48
2022/07/19 02:16:50;;;;;;;;;;;;;;;14.99;70.13;95836.59;5113318;28;1029;-48
2022/07/19 02:19:16;;;;;;;;;;;;;;;14.74;70.66;95826.88;5113652;28;978;-48
2022/07/19 02:21:42;;;;;;;;;;;;;;;14.80;70.56;95831.59;5113308;28;1060;-48
2022/07/19 02:24:08;;;;;;;;;;;;;;;15.01;69.88;95834.56;5113680;28;1032;-49
2022/07/19 02:26:35;;;;;;;;;;;;;;;15.00;70.05;95832.88;5113179;28;1994;-49
2022/07/19 02:29:01;;;;;;;;;;;;;;;14.91;70.39;95831.22;5113321;28;984;-49
2022/07/19 02:31:27;;;;;;;;;;;;;;;14.70;71.13;95836.28;5113242;28;1052;-49
2022/07/19 02:33:53;;;;;;;;;;;;;;;14.70;70.91;95839.00;5113614;28;1025;-49
2022/07/19 02:36:19;;;;;;;;;;;;;;;14.48;71.64;95838.63;5113155;28;1041;-49
2022/07/19 02:38:45;;;;;;;;;;;;;;;14.55;71.53;95828.88;5113521;28;1178;-49
2022/07/19 02:41:13;;;;;;;;;;;;;;;14.61;71.52;95830.09;5113318;28;1029;-49
2022/07/19 02:43:39;;;;;;;;;;;;;;;14.66;71.25;95837.66;5101612;28;1212;-49
2022/07/19 02:46:06;;;;;;;;;;;;;;;14.49;71.46;95840.31;5092701;28;1914;-49
2022/07/19 02:48:32;;;;;;;;;;;;;;;14.32;72.16;95834.09;5092902;28;961;-49
2022/07/19 02:50:58;;;;;;;;;;;;;;;14.19;72.81;95833.75;5092786;28;1080;-49
2022/07/19 02:53:24;;;;;;;;;;;;;;;14.19;73.10;95839.97;5094697;28;1013;-49
2022/07/19 02:55:50;;;;;;;;;;;;;;;14.35;72.43;95843.69;5096529;28;1968;-49
2022/07/19 02:58:16;;;;;;;;;;;;;;;14.19;72.94;95844.50;5096235;28;1091;-49
2022/07/19 03:00:42;;;;;;;;;;;;;;;14.10;73.43;95838.28;5096313;28;1095;-49
2022/07/19 03:05:53;;;;;;;;;;;;;;;14.53;71.76;95846.19;5096041;28;1914;-49
2022/07/19 03:08:19;;;;;;;;;;;;;;;14.59;71.74;95850.97;5095989;28;1037;-49
2022/07/19 03:10:45;;;;;;;;;;;;;;;14.60;72.01;95840.00;5096242;28;1067;-49
2022/07/19 03:13:11;;;;;;;;;;;;;;;14.46;72.24;95854.13;5095864;28;985;-49
2022/07/19 03:15:37;;;;;;;;;;;;;;;14.37;72.57;95852.44;5096410;28;1021;-48
2022/07/19 03:18:03;;;;;;;;;;;;;;;14.41;72.18;95846.53;5096019;28;980;-49
2022/07/19 03:20:29;;;;;;;;;;;;;;;14.47;72.14;95852.25;5096213;28;1040;-49
2022/07/19 03:22:55;;;;;;;;;;;;;;;14.48;72.01;95854.78;5095905;28;1000;-49
2022/07/19 03:25:21;;;;;;;;;;;;;;;14.37;72.52;95864.03;5095846;28;1984;-49
2022/07/19 03:27:48;;;;;;;;;;;;;;;14.50;72.34;95862.69;5095697;28;1093;-49
2022/07/19 03:30:14;;;;;;;;;;;;;;;14.44;72.69;95862.34;5096053;28;988;-49
2022/07/19 03:32:40;;;;;;;;;;;;;;;14.41;72.47;95865.38;5095858;28;992;-49
2022/07/19 03:35:06;;;;;;;;;;;;;;;14.21;73.54;95866.72;5095423;28;1899;-49
2022/07/19 03:37:32;;;;;;;;;;;;;;;14.09;73.29;95874.22;5095652;28;1019;-49
2022/07/19 03:39:58;;;;;;;;;;;;;;;14.10;73.85;95867.03;5095643;28;1115;-49
2022/07/19 03:42:24;;;;;;;;;;;;;;;14.38;73.19;95879.16;5096332;28;1197;-48
2022/07/19 03:44:50;;;;;;;;;;;;;;;14.38;73.38;95867.53;5116106;28;1929;-49
2022/07/19 03:47:16;;;;;;;;;;;;;;;14.39;73.34;95875.44;5116060;28;1047;-49
2022/07/19 03:49:42;;;;;;;;;;;;;;;14.50;73.04;95878.84;5115599;28;1229;-49
2022/07/19 03:52:08;;;;;;;;;;;;;;;14.75;72.41;95887.78;5115707;28;1091;-49
2022/07/19 03:54:34;;;;;;;;;;;;;;;14.99;71.90;95879.69;5115694;28;996;-49
2022/07/19 03:57:00;;;;;;;;;;;;;;;15.15;71.30;95883.34;5115646;28;1032;-49
2022/07/19 03:59:26;;;;;;;;;;;;;;;15.17;71.71;95887.53;5115434;28;988;-49
2022/07/19 04:01:52;;;;;;;;;;;;;;;15.08;71.76;95887.72;5115842;28;1043;-49
2022/07/19 04:04:18;;;;;;;;;;;;;;;14.90;72.84;95902.22;5115125;28;1104;-49
2022/07/19 04:06:44;;;;;;;;;;;;;;;14.98;72.50;95893.31;5115610;28;1909;-49
2022/07/19 04:09:10;;;;;;;;;;;;;;;15.14;72.64;95892.44;5115153;28;1246;-48
2022/07/19 04:11:36;;;;;;;;;;;;;;;15.30;71.82;95897.78;5097249;28;1060;-48
2022/07/19 04:14:02;;;;;;;;;;;;;;;15.37;72.17;95892.56;5115388;28;970;-48
2022/07/19 04:16:28;;;;;;;;;;;;;;;15.34;72.35;95888.34;5115522;28;970;-49
2022/07/19 04:18:54;;;;;;;;;;;;;;;15.49;72.32;95898.41;5115102;28;1049;-49
2022/07/19 04:21:20;;;;;;;;;;;;;;;15.73;71.24;95901.06;5115298;28;970;-49
2022/07/19 04:23:46;;;;;;;;;;;;;;;15.85;71.33;95904.19;5115007;28;1861;-49
2022/07/19 04:26:12;;;;;;;;;;;;;;;15.92;70.10;95904.34;5115018;28;1906;-49
2022/07/19 04:28:38;;;;;;;;;;;;;;;16.25;69.57;95905.00;5114909;28;964;-48
2022/07/19 04:31:04;;;;;;;;;;;;;;;16.38;68.84;95910.66;5114939;28;1086;-49
2022/07/19 04:33:30;;;;;;;;;;;;;;;16.40;67.59;95905.09;5115030;28;970;-49
2022/07/19 04:35:56;;;;;;;;;;;;;;;16.60;67.17;95905.47;5114890;28;1216;-49
2022/07/19 04:38:22;;;;;;;;;;;;;;;16.80;67.20;95908.50;5114789;28;1012;-49
2022/07/19 04:40:49;;;;;;;;;;;;;;;16.90;66.58;95903.72;5114866;28;1054;-49
2022/07/19 04:43:18;;;;;;;;;;;;;;;17.10;64.96;95904.03;5106527;28;1157;-49
2022/07/19 04:45:44;;;;;;;;;;;;;;;17.26;65.20;95908.44;5094175;28;1988;-49
2022/07/19 04:48:10;;;;;;;;;;;;;;;17.32;65.41;95907.72;5094396;28;982;-49
2022/07/19 04:50:37;;;;;;;;;;;;;;;17.34;65.37;95902.97;5094013;28;1175;-49
2022/07/19 04:53:03;;;;;;;;;;;;;;;17.34;63.83;95907.53;5094277;28;1055;-50
2022/07/19 04:55:29;;;;;;;;;;;;;;;17.45;64.26;95917.03;5094041;28;1027;-50
2022/07/19 04:57:55;;;;;;;;;;;;;;;17.68;63.25;95919.66;5094048;28;1868;-50
2022/07/19 05:00:21;;;;;;;;;;;;;;;17.87;62.43;95921.84;5093838;28;1076;-50
2022/07/19 05:02:47;;;;;;;;;;;;;;;18.03;62.97;95917.25;5076292;28;986;-49
2022/07/19 05:05:14;;;;;;;;;;;;;;;18.13;61.96;95920.50;5093617;28;1981;-50
2022/07/19 05:07:40;;;;;;;;;;;;;;;18.23;62.25;95923.75;5093968;28;1025;-51
2022/07/19 05:10:07;;;;;;;;;;;;;;;18.47;62.20;95927.13;5093871;28;2121;-50
2022/07/19 05:12:33;;;;;;;;;;;;;;;18.50;61.38;95940.31;5093868;28;1029;-48
2022/07/19 05:15:00;;;;;;;;;;;;;;;18.66;61.27;95929.22;5093660;28;1041;-50
2022/07/19 05:17:26;;;;;;;;;;;;;;;19.05;60.54;95924.41;5093934;28;1000;-49
2022/07/19 05:19:52;;;;;;;;;;;;;;;19.30;59.89;95927.53;5093626;28;1075;-50
2022/07/19 05:22:18;;;;;;;;;;;;;;;19.51;58.94;95923.94;5093808;28;1052;-50
2022/07/19 05:24:44;;;;;;;;;;;;;;;19.58;58.91;95922.09;5093600;28;1108;-49
2022/07/19 05:27:10;;;;;;;;;;;;;;;19.98;56.97;95926.97;5093753;28;1976;-50
2022/07/19 05:29:37;;;;;;;;;;;;;;;20.54;54.08;95925.91;5093740;28;962;-50
2022/07/19 05:32:03;;;;;;;;;;;;;;;20.61;55.68;95924.09;5093586;28;1087;-50
2022/07/19 05:34:29;;;;;;;;;;;;;;;20.48;56.13;95920.25;5093449;28;1029;-50
2022/07/19 05:36:55;;;;;;;;;;;;;;;20.51;55.25;95927.19;5093660;28;969;-50
2022/07/19 05:39:21;;;;;;;;;;;;;;;20.96;53.85;95916.66;5093497;28;1031;-51
2022/07/19 05:41:47;;;;;;;;;;;;;;;20.76;53.84;95924.75;5093217;28;1028;-51
2022/07/19 05:44:13;;;;;;;;;;;;;;;20.51;55.35;95915.44;5109590;28;1209;-51
2022/07/19 05:46:40;;;;;;;;;;;;;;;20.79;55.94;95926.22;5113537;28;2016;-51
2022/07/19 05:49:08;;;;;;;;;;;;;;;21.12;54.20;95917.28;5113465;28;1095;-52
2022/07/19 05:51:35;;;;;;;;;;;;;;;21.29;53.67;95918.53;5113740;28;977;-51
2022/07/19 05:54:01;;;;;;;;;;;;;;;21.30;54.91;95913.91;5113601;28;1033;-51
2022/07/19 06:04:42;;;;;;;;;;;;;;;20.64;58.58;95910.94;4822858;27;1407903;-50
2022/07/19 06:07:08;;;;;;;;;;;;;;;20.93;56.34;95905.34;5173159;27;957;-49
2022/07/19 06:09:34;;;;;;;;;;;;;;;20.97;55.66;95910.16;5173233;27;1015;-49
2022/07/19 06:12:00;;;;;;;;;;;;;;;21.21;56.04;95910.59;5172819;27;1051;-49
2022/07/19 06:14:26;;;;;;;;;;;;;;;21.20;56.68;95909.72;5173037;27;979;-50
2022/07/19 06:16:53;;;;;;;;;;;;;;;21.40;55.99;95912.47;5172601;27;1071;-50
2022/07/19 06:19:19;;;;;;;;;;;;;;;21.49;55.51;95899.50;5172591;27;1913;-50
2022/07/19 06:21:46;;;;;;;;;;;;;;;21.60;55.59;95909.72;5172649;27;1083;-50
2022/07/19 06:24:12;;;;;;;;;;;;;;;21.85;54.15;95903.59;5172919;27;945;-51
2022/07/19 06:26:38;;;;;;;;;;;;;;;21.86;53.87;95899.84;5172524;27;1093;-51
2022/07/19 06:29:04;;;;;;;;;;;;;;;21.95;53.36;95895.84;5173013;27;975;-50
2022/07/19 06:31:30;;;;;;;;;;;;;;;22.05;53.39;95905.47;5172471;27;1987;-51
2022/07/19 06:33:56;;;;;;;;;;;;;;;22.23;54.07;95900.13;5172463;27;1067;-51
2022/07/19 06:36:22;;;;;;;;;;;;;;;22.32;52.38;95904.31;5172081;27;940;-51
2022/07/19 06:38:49;;;;;;;;;;;;;;;22.37;52.94;95899.06;5172478;27;1020;-51
2022/07/19 06:41:16;;;;;;;;;;;;;;;22.41;52.43;95908.47;5172286;27;1985;-51
2022/07/19 06:43:42;;;;;;;;;;;;;;;22.38;51.35;95897.16;5172303;27;1130;-51
2022/07/19 06:46:08;;;;;;;;;;;;;;;22.52;51.46;95895.19;5172124;27;959;-52
2022/07/19 06:48:35;;;;;;;;;;;;;;;22.65;51.33;95903.31;5172285;27;1055;-51
2022/07/19 06:51:01;;;;;;;;;;;;;;;22.87;52.18;95892.91;5172106;27;1111;-52
2022/07/19 06:53:27;;;;;;;;;;;;;;;22.90;51.27;95894.38;5172379;27;1063;-52
2022/07/19 06:55:53;;;;;;;;;;;;;;;23.00;50.42;95892.81;5172086;27;1091;-51
2022/07/19 06:58:19;;;;;;;;;;;;;;;23.11;52.02;95888.56;5172070;27;1063;-51
2022/07/19 07:00:45;;;;;;;;;;;;;;;23.17;50.63;95892.28;5171845;27;2000;-52
2022/07/19 07:03:11;;;;;;;;;;;;;;;23.25;51.32;95886.56;5171848;27;1110;-52
2022/07/19 07:05:37;;;;;;;;;;;;;;;23.17;49.17;95893.13;5171993;27;972;-52
2022/07/19 07:08:03;;;;;;;;;;;;;;;23.10;49.25;95878.69;5171931;27;1131;-52
2022/07/19 07:10:29;;;;;;;;;;;;;;;23.22;50.15;95877.97;5172041;27;1112;-49
2022/07/19 07:12:55;;;;;;;;;;;;;;;23.59;49.03;95878.91;5157385;27;1090;-49
2022/07/19 07:15:21;;;;;;;;;;;;;;;23.85;48.41;95877.00;5157908;27;987;-49
2022/07/19 07:17:47;;;;;;;;;;;;;;;23.74;47.49;95865.72;5157772;27;1039;-49
2022/07/19 07:20:13;;;;;;;;;;;;;;;23.70;49.50;95869.97;5158021;27;1980;-49
2022/07/19 07:22:39;;;;;;;;;;;;;;;24.01;49.02;95870.09;5157762;27;1063;-50
2022/07/19 07:25:05;;;;;;;;;;;;;;;24.26;48.31;95869.97;5157886;27;1055;-49
2022/07/19 07:27:31;;;;;;;;;;;;;;;24.52;46.85;95866.94;5158075;27;1027;-49
2022/07/19 07:29:58;;;;;;;;;;;;;;;24.64;46.49;95868.88;5157776;27;1003;-50
2022/07/19 07:32:26;;;;;;;;;;;;;;;24.82;45.88;95866.09;5157431;27;999;-49
2022/07/19 07:34:52;;;;;;;;;;;;;;;24.67;46.14;95863.78;5157723;27;969;-51
2022/07/19 07:37:18;;;;;;;;;;;;;;;24.62;46.39;95868.28;5157273;27;1016;-50
2022/07/19 07:39:44;;;;;;;;;;;;;;;24.69;46.79;95866.28;5157544;27;1905;-49
2022/07/19 07:42:10;;;;;;;;;;;;;;;24.70;45.63;95865.19;5157238;27;1020;-51
2022/07/19 07:44:36;;;;;;;;;;;;;;;24.79;45.76;95862.97;5137540;27;1184;-51
2022/07/19 07:47:03;;;;;;;;;;;;;;;24.80;45.34;95860.03;5136328;27;1032;-49
2022/07/19 07:49:30;;;;;;;;;;;;;;;24.88;46.88;95859.66;5118655;27;1032;-49
2022/07/19 07:51:56;;;;;;;;;;;;;;;24.92;46.56;95860.03;5136597;27;1028;-49
2022/07/19 07:54:22;;;;;;;;;;;;;;;25.08;46.53;95862.09;5136445;27;1071;-50
2022/07/19 07:56:48;;;;;;;;;;;;;;;25.17;46.64;95856.28;5136554;27;968;-50
2022/07/19 07:59:14;;;;;;;;;;;;;;;25.35;46.43;95853.47;5136315;27;1894;-50
2022/07/19 08:01:42;;;;;;;;;;;;;;;25.61;46.07;95852.19;5136125;27;1048;-50
2022/07/19 08:04:09;;;;;;;;;;;;;;;25.78;45.27;95854.19;5135904;27;1233;-50
2022/07/19 08:06:35;;;;;;;;;;;;;;;25.78;44.59;95846.81;5117985;27;1019;-50
2022/07/19 08:09:01;;;;;;;;;;;;;;;25.87;45.91;95845.34;5136335;27;1052;-50
2022/07/19 08:11:27;;;;;;;;;;;;;;;25.73;44.61;95852.16;5136194;27;1067;-50
2022/07/19 08:13:53;;;;;;;;;;;;;;;25.73;43.63;95841.22;5136173;27;1182;-50
2022/07/19 08:16:19;;;;;;;;;;;;;;;25.91;44.81;95845.69;5135947;27;1024;-49
2022/07/19 08:18:45;;;;;;;;;;;;;;;26.02;45.05;95847.63;5136168;27;1051;-50
2022/07/19 08:21:11;;;;;;;;;;;;;;;26.01;45.15;95847.84;5135845;27;1995;-49
2022/07/19 08:23:37;;;;;;;;;;;;;;;26.11;43.71;95842.59;5135053;27;960;-50
2022/07/19 08:26:03;;;;;;;;;;;;;;;26.10;43.85;95835.44;5135805;27;906;-50
2022/07/19 08:28:29;;;;;;;;;;;;;;;26.10;44.92;95839.03;5135734;27;1051;-50
2022/07/19 08:30:55;;;;;;;;;;;;;;;26.18;44.40;95837.81;5135695;27;1027;-50
2022/07/19 08:33:21;;;;;;;;;;;;;;;26.27;42.68;95835.50;5135465;27;1000;-50
2022/07/19 08:35:47;;;;;;;;;;;;;;;26.38;43.06;95831.06;5135711;27;1132;-51
2022/07/19 08:38:13;;;;;;;;;;;;;;;26.46;42.08;95833.41;5135336;27;1067;-51
2022/07/19 08:40:41;;;;;;;;;;;;;;;26.44;42.23;95830.09;5135659;27;1927;-51
2022/07/19 08:43:08;;;;;;;;;;;;;;;26.52;42.02;95824.19;5142460;27;1153;-51
2022/07/19 08:45:36;;;;;;;;;;;;;;;26.59;39.61;95824.91;5156159;27;987;-51
2022/07/19 08:48:05;;;;;;;;;;;;;;;26.64;39.49;95821.47;5156191;27;983;-50
2022/07/19 08:50:32;;;;;;;;;;;;;;;26.82;41.46;95812.16;5156319;27;1039;-51
2022/07/19 08:52:59;;;;;;;;;;;;;;;26.86;40.20;95805.09;5156343;27;965;-51
2022/07/19 08:55:25;;;;;;;;;;;;;;;26.95;42.01;95813.75;5156171;27;1047;-51
2022/07/19 08:57:57;;;;;;;;;;;;;;;27.07;41.30;95809.00;5155874;27;1011;-50
2022/07/19 09:00:27;;;;;;;;;;;;;;;27.15;41.02;95807.75;5155820;27;1988;-50
2022/07/19 09:02:54;;;;;;;;;;;;;;;27.14;40.32;95808.84;5155861;27;1249;-50
2022/07/19 09:05:20;;;;;;;;;;;;;;;27.23;40.43;95801.88;5155831;27;944;-50
2022/07/19 09:07:59;;;;;;;;;;;;;;;27.36;40.84;95801.56;5155654;27;1047;-49
2022/07/19 09:10:25;;;;;;;;;;;;;;;27.37;39.47;95796.88;5155864;27;1035;-50
2022/07/19 09:12:58;;;;;;;;;;;;;;;27.33;40.14;95799.31;5155453;27;999;-50
2022/07/19 09:15:44;;;;;;;;;;;;;;;27.38;39.37;95804.06;5155601;27;1861;-51
2022/07/19 09:18:12;;;;;;;;;;;;;;;27.32;38.32;95796.81;5137982;27;1900;-50
2022/07/19 09:20:39;;;;;;;;;;;;;;;27.25;37.87;95800.56;5155519;27;1910;-51
2022/07/19 09:23:05;;;;;;;;;;;;;;;27.40;40.01;95797.22;5155301;27;1028;-53
2022/07/19 09:25:36;;;;;;;;;;;;;;;27.58;39.64;95796.09;5137129;27;1027;-50
2022/07/19 09:28:02;;;;;;;;;;;;;;;27.70;39.24;95796.00;5155430;27;1024;-50
2022/07/19 09:30:36;;;;;;;;;;;;;;;27.72;40.28;95791.09;5155610;27;1047;-51
2022/07/19 09:33:22;;;;;;;;;;;;;;;27.74;39.41;95791.66;5155144;27;1028;-52
2022/07/19 09:35:48;;;;;;;;;;;;;;;27.66;39.38;95792.13;5154903;27;940;-51
2022/07/19 09:38:15;;;;;;;;;;;;;;;27.57;38.95;95788.13;5155080;27;1880;-51
2022/07/19 09:40:41;;;;;;;;;;;;;;;27.39;39.58;95786.47;5155427;27;1930;-51
2022/07/19 09:43:07;;;;;;;;;;;;;;;27.43;39.03;95785.75;5147924;27;1189;-50
2022/07/19 09:45:33;;;;;;;;;;;;;;;27.52;38.78;95782.56;5134613;27;950;-49
2022/07/19 09:48:03;;;;;;;;;;;;;;;27.67;37.60;95779.19;5134507;27;952;-50
2022/07/19 09:50:30;;;;;;;;;;;;;;;27.66;38.43;95775.63;5134258;27;1024;-50
2022/07/19 09:52:58;;;;;;;;;;;;;;;27.81;39.07;95777.72;5134667;27;1079;-50
2022/07/19 09:55:24;;;;;;;;;;;;;;;27.82;37.56;95776.66;5134338;27;975;-50
2022/07/19 09:57:51;;;;;;;;;;;;;;;27.81;38.34;95775.81;5134504;28;960;-50
2022/07/19 10:00:18;;;;;;;;;;;;;;;27.82;37.53;95782.97;5134135;28;1914;-50
2022/07/19 10:02:47;;;;;;;;;;;;;;;27.76;36.99;95770.25;5134260;28;1095;-51
2022/07/19 10:05:13;;;;;;;;;;;;;;;27.89;37.24;95771.84;5133842;28;1091;-50
2022/07/19 10:07:40;;;;;;;;;;;;;;;28.09;35.93;95765.75;5134293;28;1016;-51
2022/07/19 10:10:07;;;;;;;;;;;;;;;28.26;37.50;95767.59;5134046;28;1011;-52
2022/07/19 10:12:36;;;;;;;;;;;;;;;28.33;36.29;95759.97;5134371;28;1006;-52
2022/07/19 10:15:02;;;;;;;;;;;;;;;28.37;37.61;95763.84;5133974;28;1012;-52
2022/07/19 10:17:34;;;;;;;;;;;;;;;28.40;36.97;95766.06;5134224;28;969;-51
2022/07/19 10:20:00;;;;;;;;;;;;;;;28.33;37.38;95760.78;5134141;28;1978;-51
2022/07/19 10:22:27;;;;;;;;;;;;;;;28.29;37.39;95759.66;5134145;28;977;-50
2022/07/19 10:24:53;;;;;;;;;;;;;;;28.22;36.14;95761.75;5134114;28;1043;-50
2022/07/19 10:27:35;;;;;;;;;;;;;;;28.27;37.50;95750.84;5134177;28;1042;-50
2022/07/19 10:30:22;;;;;;;;;;;;;;;28.35;35.90;95741.28;5133761;28;1117;-50
2022/07/19 10:32:48;;;;;;;;;;;;;;;28.41;36.00;95743.81;5134267;28;1043;-50
2022/07/19 10:35:15;;;;;;;;;;;;;;;28.39;34.88;95748.75;5133735;28;1077;-51
2022/07/19 10:37:41;;;;;;;;;;;;;;;28.40;35.46;95741.31;5134134;28;979;-51
2022/07/19 10:40:08;;;;;;;;;;;;;;;28.42;35.05;95742.75;5133712;28;1975;-51
2022/07/19 10:42:34;;;;;;;;;;;;;;;28.01;36.54;95742.28;5136255;27;1176;-51
2022/07/19 10:45:00;;;;;;;;;;;;;;;27.63;37.19;95735.75;5154605;27;1059;-51
2022/07/19 10:47:32;;;;;;;;;;;;;;;27.52;37.14;95733.13;5157377;27;1042;-50
2022/07/19 10:50:04;;;;;;;;;;;;;;;27.61;37.36;95728.84;5158575;27;1027;-50
2022/07/19 10:52:37;;;;;;;;;;;;;;;27.48;37.19;95730.06;5158593;27;1022;-50
2022/07/19 10:55:15;;;;;;;;;;;;;;;27.67;37.51;95719.59;5158190;27;1032;-50
2022/07/19 10:57:42;;;;;;;;;;;;;;;27.86;36.88;95725.59;5158612;27;1031;-50
2022/07/19 11:00:17;;;;;;;;;;;;;;;27.98;36.06;95726.34;5158180;27;1913;-51
2022/07/19 11:02:43;;;;;;;;;;;;;;;27.99;35.86;95727.97;5158072;27;1226;-52
2022/07/19 11:05:26;;;;;;;;;;;;;;;28.06;35.00;95722.28;5157940;27;988;-51
2022/07/19 11:07:53;;;;;;;;;;;;;;;28.14;35.32;95715.50;5158176;27;1862;-50
2022/07/19 11:10:25;;;;;;;;;;;;;;;28.24;35.41;95708.16;5158128;27;964;-50
2022/07/19 11:12:52;;;;;;;;;;;;;;;28.33;35.32;95705.81;5158115;27;1873;-51
2022/07/19 11:15:18;;;;;;;;;;;;;;;28.49;35.79;95708.69;5157892;27;1047;-50
2022/07/19 11:18:10;;;;;;;;;;;;;;;28.60;35.34;95710.47;5158108;27;949;-51
2022/07/19 11:20:36;;;;;;;;;;;;;;;28.51;34.59;95701.00;5153174;27;2009;-51
2022/07/19 11:23:06;;;;;;;;;;;;;;;28.50;33.95;95702.13;5158031;27;957;-51
2022/07/19 11:25:33;;;;;;;;;;;;;;;28.41;34.46;95697.06;5158130;27;981;-50
2022/07/19 11:27:59;;;;;;;;;;;;;;;28.34;34.09;95695.63;5158316;27;964;-50
2022/07/19 11:30:27;;;;;;;;;;;;;;;28.46;33.48;95690.81;5157660;27;1059;-51
2022/07/19 11:32:56;;;;;;;;;;;;;;;28.61;33.94;95687.38;5157674;27;941;-51
2022/07/19 11:35:22;;;;;;;;;;;;;;;28.72;33.90;95685.53;5157156;27;1027;-50
2022/07/19 11:37:51;;;;;;;;;;;;;;;28.71;33.77;95686.63;5157781;27;1145;-51
2022/07/19 11:40:17;;;;;;;;;;;;;;;28.35;32.57;95691.78;5157352;27;1913;-51
2022/07/19 11:42:44;;;;;;;;;;;;;;;28.02;34.67;95686.25;5153919;27;1149;-50
2022/07/19 11:45:39;;;;;;;;;;;;;;;27.91;35.53;95689.16;5136547;27;973;-51
2022/07/19 11:48:05;;;;;;;;;;;;;;;28.03;35.11;95681.56;5114757;27;1812;-50
2022/07/19 11:50:31;;;;;;;;;;;;;;;27.88;34.78;95678.63;5136353;27;1083;-50
2022/07/19 11:52:59;;;;;;;;;;;;;;;27.70;36.79;95683.38;5137051;27;1037;-50
2022/07/19 11:55:33;;;;;;;;;;;;;;;27.49;35.89;95671.31;5136474;27;984;-50
2022/07/19 11:58:04;;;;;;;;;;;;;;;27.72;36.04;95680.38;5136407;27;1026;-50
2022/07/19 12:00:31;;;;;;;;;;;;;;;28.01;35.62;95673.59;5136730;27;1910;-51
2022/07/19 12:03:08;;;;;;;;;;;;;;;28.27;35.84;95671.09;5136399;27;1210;-50
2022/07/19 12:05:36;;;;;;;;;;;;;;;28.45;34.11;95669.06;5135913;27;1196;-49
2022/07/19 12:08:03;;;;;;;;;;;;;;;28.54;33.86;95662.00;5136258;27;941;-50
2022/07/19 12:10:38;;;;;;;;;;;;;;;28.67;33.87;95660.75;5135963;27;1884;-50
2022/07/19 12:13:05;;;;;;;;;;;;;;;28.88;34.66;95656.22;5136310;27;961;-50
2022/07/19 12:15:48;;;;;;;;;;;;;;;29.05;33.08;95661.56;5136178;27;1178;-50
2022/07/19 12:18:18;;;;;;;;;;;;;;;29.04;33.66;95655.22;5136132;27;1179;-50
2022/07/19 12:20:45;;;;;;;;;;;;;;;29.00;34.45;95654.91;5135965;27;1910;-50
2022/07/19 12:23:13;;;;;;;;;;;;;;;28.63;34.52;95663.19;5135884;27;965;-49
2022/07/19 12:25:39;;;;;;;;;;;;;;;28.16;34.28;95663.84;5136041;27;983;-49
2022/07/19 12:28:06;;;;;;;;;;;;;;;27.87;34.77;95657.72;5135908;27;1052;-49
2022/07/19 12:30:33;;;;;;;;;;;;;;;28.07;34.84;95660.72;5135983;27;991;-50
2022/07/19 12:33:10;;;;;;;;;;;;;;;28.31;34.14;95664.00;5135611;27;1024;-50
2022/07/19 12:35:46;;;;;;;;;;;;;;;28.36;33.33;95661.28;5135500;27;1040;-49
2022/07/19 12:38:13;;;;;;;;;;;;;;;28.39;34.52;95654.44;5135880;27;1015;-50
2022/07/19 12:40:40;;;;;;;;;;;;;;;28.47;33.61;95645.69;5135752;27;2000;-49
2022/07/19 12:43:06;;;;;;;;;;;;;;;28.51;33.26;95641.31;5142338;27;1173;-49
2022/07/19 12:45:39;;;;;;;;;;;;;;;28.54;32.73;95640.84;5156303;27;1867;-49
2022/07/19 12:48:05;;;;;;;;;;;;;;;28.62;32.96;95634.84;5155862;27;1930;-49
2022/07/19 12:50:31;;;;;;;;;;;;;;;28.76;32.17;95626.97;5156116;27;1067;-49
2022/07/19 12:52:58;;;;;;;;;;;;;;;28.81;32.52;95628.91;5156108;27;957;-50
2022/07/19 12:55:25;;;;;;;;;;;;;;;28.82;33.35;95625.09;5156297;27;1056;-49
2022/07/19 12:57:52;;;;;;;;;;;;;;;28.72;34.00;95620.34;5155939;27;981;-50
2022/07/19 13:00:19;;;;;;;;;;;;;;;28.51;35.45;95619.31;5155803;27;1909;-50
2022/07/19 13:02:46;;;;;;;;;;;;;;;28.34;34.24;95630.47;5155471;27;1091;-51
2022/07/19 13:05:12;;;;;;;;;;;;;;;28.16;34.41;95628.09;5155594;27;1090;-50
2022/07/19 13:07:38;;;;;;;;;;;;;;;27.88;33.42;95621.75;5155911;27;948;-49
2022/07/19 13:10:05;;;;;;;;;;;;;;;27.61;34.13;95619.81;5155288;27;917;-49